createdAt,value
2018-02-24T00:00:28.640Z,50.34
2018-02-24T00:02:56.920Z,50.36
2018-02-24T00:05:25.224Z,50.48
2018-02-24T00:07:53.500Z,51.09
2018-02-24T00:10:21.820Z,51.11
2018-02-24T00:12:50.128Z,51.02
2018-02-24T00:15:18.377Z,50.95
2018-02-24T00:17:46.684Z,50.97
2018-02-24T00:20:14.960Z,51.04
2018-02-24T00:22:43.570Z,51.48
2018-02-24T00:25:11.835Z,51.55
2018-02-24T00:27:40.146Z,51.63
2018-02-24T00:30:08.414Z,51.24
2018-02-24T00:32:36.744Z,51.36
2018-02-24T00:35:05.078Z,51.52
2018-02-24T00:37:33.351Z,51.90
2018-02-24T00:40:01.700Z,51.52
2018-02-24T00:42:29.993Z,51.50
2018-02-24T00:44:58.336Z,51.25
2018-02-24T00:47:26.620Z,51.12
2018-02-24T00:49:54.896Z,50.81
2018-02-24T00:52:23.175Z,50.94
2018-02-24T00:54:51.519Z,51.32
2018-02-24T00:57:19.773Z,50.95
2018-02-24T00:59:48.128Z,51.40
2018-02-24T01:02:16.360Z,50.98
2018-02-24T01:04:44.660Z,51.02
2018-02-24T01:07:13.019Z,50.67
2018-02-24T01:09:41.293Z,50.88
2018-02-24T01:12:09.595Z,50.92
2018-02-24T01:14:37.871Z,50.79
2018-02-24T01:17:06.165Z,50.57
2018-02-24T01:19:34.448Z,50.40
2018-02-24T01:22:02.863Z,50.74
2018-02-24T01:24:31.111Z,50.97
2018-02-24T01:26:59.400Z,51.40
2018-02-24T01:29:27.659Z,51.38
2018-02-24T01:31:55.967Z,51.16
2018-02-24T01:34:24.293Z,51.14
2018-02-24T01:36:52.644Z,51.21
2018-02-24T01:39:20.931Z,51.04
2018-02-24T01:41:49.241Z,51.18
2018-02-24T01:44:17.508Z,51.66
2018-02-24T01:46:45.799Z,51.47
2018-02-24T01:49:14.117Z,51.43
2018-02-24T01:51:42.422Z,51.09
2018-02-24T01:54:10.720Z,51.76
2018-02-24T01:56:38.980Z,51.33
2018-02-24T01:59:07.340Z,51.44
2018-02-24T02:01:35.633Z,52.33
2018-02-24T02:04:04.377Z,51.61
2018-02-24T02:06:32.649Z,52.06
2018-02-24T02:09:00.995Z,52.07
2018-02-24T02:11:29.292Z,51.88
2018-02-24T02:13:57.586Z,51.50
2018-02-24T02:16:25.860Z,52.33
2018-02-24T02:18:54.205Z,52.28
2018-02-24T02:21:22.512Z,52.24
2018-02-24T02:23:50.792Z,52.51
2018-02-24T02:26:19.115Z,52.07
2018-02-24T02:28:47.426Z,51.46
2018-02-24T02:31:15.717Z,51.48
2018-02-24T02:33:44.003Z,51.49
2018-02-24T02:36:12.301Z,51.50
2018-02-24T02:38:40.587Z,51.88
2018-02-24T02:41:08.885Z,51.65
2018-02-24T02:43:37.220Z,51.79
2018-02-24T02:46:05.560Z,51.46
2018-02-24T02:48:33.898Z,52.32
2018-02-24T02:51:02.173Z,51.77
2018-02-24T02:53:30.500Z,52.00
2018-02-24T02:55:58.792Z,51.94
2018-02-24T02:58:27.089Z,52.21
2018-02-24T03:00:55.357Z,51.85
2018-02-24T03:03:23.663Z,51.87
2018-02-24T03:05:52.097Z,51.61
2018-02-24T03:08:20.399Z,52.27
2018-02-24T03:10:48.667Z,52.15
2018-02-24T03:13:16.996Z,52.33
2018-02-24T03:15:45.269Z,52.46
2018-02-24T03:18:13.575Z,52.34
2018-02-24T03:20:41.833Z,52.35
2018-02-24T03:23:10.134Z,52.66
2018-02-24T03:25:38.425Z,52.26
2018-02-24T03:28:06.736Z,52.16
2018-02-24T03:30:35.013Z,52.24
2018-02-24T03:33:03.307Z,52.62
2018-02-24T03:35:31.644Z,52.33
2018-02-24T03:37:59.911Z,52.13
2018-02-24T03:40:28.215Z,52.36
2018-02-24T03:42:56.486Z,52.36
2018-02-24T03:45:24.799Z,52.26
2018-02-24T03:47:53.100Z,52.39
2018-02-24T03:50:21.413Z,52.76
2018-02-24T03:52:49.680Z,52.77
2018-02-24T03:55:17.993Z,52.87
2018-02-24T03:57:47.297Z,52.51
2018-02-24T04:00:15.596Z,52.37
2018-02-24T04:02:43.912Z,52.85
2018-02-24T04:05:12.225Z,53.00
2018-02-24T04:07:40.526Z,53.22
2018-02-24T04:10:08.803Z,53.53
2018-02-24T04:12:37.133Z,53.50
2018-02-24T04:15:05.461Z,53.32
2018-02-24T04:17:33.820Z,53.53
2018-02-24T04:20:02.138Z,53.62
2018-02-24T04:22:30.433Z,53.61
2018-02-24T04:24:58.743Z,53.62
2018-02-24T04:27:27.357Z,53.13
2018-02-24T04:29:55.647Z,53.01
2018-02-24T04:32:23.942Z,53.38
2018-02-24T04:34:52.232Z,53.46
2018-02-24T04:37:20.508Z,53.80
2018-02-24T04:39:48.829Z,53.42
2018-02-24T04:42:17.120Z,53.08
2018-02-24T04:44:45.419Z,53.03
2018-02-24T04:47:13.707Z,53.75
2018-02-24T04:49:41.987Z,53.54
2018-02-24T04:52:10.263Z,53.38
2018-02-24T04:54:38.572Z,53.51
2018-02-24T04:57:06.845Z,53.81
2018-02-24T04:59:35.119Z,54.73
2018-02-24T05:02:04.256Z,54.46
2018-02-24T05:04:32.549Z,53.95
2018-02-24T05:07:00.873Z,53.97
2018-02-24T05:09:29.137Z,53.54
2018-02-24T05:11:57.440Z,53.47
2018-02-24T05:14:25.712Z,53.99
2018-02-24T05:16:54.020Z,54.37
2018-02-24T05:19:22.327Z,54.24
2018-02-24T05:21:50.995Z,54.28
2018-02-24T05:24:19.267Z,54.49
2018-02-24T05:26:47.595Z,54.12
2018-02-24T05:29:15.879Z,54.26
2018-02-24T05:31:44.203Z,54.20
2018-02-24T05:34:12.503Z,54.14
2018-02-24T05:36:40.795Z,54.65
2018-02-24T05:39:09.176Z,55.47
2018-02-24T05:41:37.487Z,54.98
2018-02-24T05:44:05.798Z,54.90
2018-02-24T05:46:34.148Z,54.45
2018-02-24T05:49:02.456Z,54.60
2018-02-24T05:51:30.765Z,54.99
2018-02-24T05:53:59.071Z,55.17
2018-02-24T05:56:27.344Z,54.76
2018-02-24T05:58:55.639Z,54.83
2018-02-24T06:01:23.932Z,54.84
2018-02-24T06:03:52.215Z,54.74
2018-02-24T06:06:20.570Z,55.21
2018-02-24T06:08:48.862Z,55.40
2018-02-24T06:11:17.197Z,55.25
2018-02-24T06:13:45.493Z,54.99
2018-02-24T06:16:13.817Z,54.58
2018-02-24T06:18:42.125Z,54.53
2018-02-24T06:21:10.502Z,54.24
2018-02-24T06:23:38.779Z,54.16
2018-02-24T06:26:07.128Z,54.16
2018-02-24T06:28:35.444Z,54.34
2018-02-24T06:31:03.741Z,54.09
2018-02-24T06:33:32.061Z,54.37
2018-02-24T06:36:00.366Z,54.35
2018-02-24T06:38:28.672Z,54.50
2018-02-24T06:40:57.020Z,54.40
2018-02-24T06:43:25.324Z,54.31
2018-02-24T06:45:53.643Z,54.45
2018-02-24T06:48:21.946Z,54.53
2018-02-24T06:50:50.235Z,54.19
2018-02-24T06:53:18.540Z,53.86
2018-02-24T06:55:46.828Z,54.16
2018-02-24T06:58:15.151Z,53.97
2018-02-24T07:00:43.492Z,53.36
2018-02-24T07:03:11.730Z,53.48
2018-02-24T07:05:40.020Z,53.14
2018-02-24T07:08:08.317Z,53.60
2018-02-24T07:10:36.619Z,53.72
2018-02-24T07:13:04.928Z,53.52
2018-02-24T07:15:33.243Z,53.41
2018-02-24T07:18:02.198Z,53.85
2018-02-24T07:20:30.551Z,53.65
2018-02-24T07:22:58.832Z,53.42
2018-02-24T07:25:27.143Z,53.75
2018-02-24T07:27:55.417Z,53.33
2018-02-24T07:30:23.716Z,53.35
2018-02-24T07:32:52.083Z,53.10
2018-02-24T07:35:20.352Z,53.39
2018-02-24T07:37:48.666Z,52.97
2018-02-24T07:40:17.010Z,53.08
2018-02-24T07:42:45.320Z,52.62
2018-02-24T07:45:13.650Z,52.35
2018-02-24T07:47:41.942Z,52.32
2018-02-24T07:50:10.220Z,52.22
2018-02-24T07:52:38.544Z,52.61
2018-02-24T07:55:06.823Z,52.20
2018-02-24T07:57:35.143Z,51.31
2018-02-24T08:00:04.073Z,51.62
2018-02-24T08:02:32.920Z,51.40
2018-02-24T08:05:01.184Z,51.27
2018-02-24T08:07:29.504Z,51.45
2018-02-24T08:09:57.842Z,50.59
2018-02-24T08:12:26.155Z,50.82
2018-02-24T08:14:54.471Z,50.99
2018-02-24T08:17:22.767Z,50.31
2018-02-24T08:19:51.083Z,49.95
2018-02-24T08:22:19.381Z,49.38
2018-02-24T08:24:47.687Z,49.45
2018-02-24T08:27:16.004Z,49.10
2018-02-24T08:29:44.415Z,49.68
2018-02-24T08:32:12.721Z,49.67
2018-02-24T08:34:41.019Z,49.19
2018-02-24T08:37:09.314Z,49.80
2018-02-24T08:39:37.601Z,48.75
2018-02-24T08:42:05.912Z,49.02
2018-02-24T08:44:34.203Z,48.12
2018-02-24T08:47:02.531Z,47.90
2018-02-24T08:49:30.815Z,46.94
2018-02-24T08:51:59.088Z,47.09
2018-02-24T08:54:27.379Z,46.87
2018-02-24T08:56:55.679Z,46.86
2018-02-24T08:59:23.955Z,46.97
2018-02-24T09:01:52.262Z,46.59
2018-02-24T09:04:20.584Z,46.37
2018-02-24T09:06:48.868Z,46.17
2018-02-24T09:09:17.147Z,46.14
2018-02-24T09:11:45.440Z,45.26
2018-02-24T09:14:14.246Z,45.51
2018-02-24T09:16:42.506Z,44.92
2018-02-24T09:19:11.059Z,45.05
2018-02-24T09:21:39.538Z,44.95
2018-02-24T09:24:07.852Z,44.07
2018-02-24T09:26:36.147Z,43.72
2018-02-24T09:29:05.523Z,43.59
2018-02-24T09:31:33.848Z,42.85
2018-02-24T09:34:02.130Z,43.05
2018-02-24T09:36:30.424Z,43.13
2018-02-24T09:38:58.812Z,43.01
2018-02-24T09:41:27.489Z,41.82
2018-02-24T09:43:56.508Z,41.90
2018-02-24T09:46:24.802Z,41.78
2018-02-24T09:48:53.101Z,41.48
2018-02-24T09:51:21.404Z,41.87
2018-02-24T09:53:49.682Z,42.25
2018-02-24T09:56:18.056Z,42.02
2018-02-24T09:58:46.323Z,41.72
2018-02-24T10:01:14.635Z,41.44
2018-02-24T10:03:42.964Z,41.08
2018-02-24T10:06:11.270Z,41.25
2018-02-24T10:08:39.549Z,41.31
2018-02-24T10:11:07.864Z,41.39
2018-02-24T10:13:36.188Z,41.21
2018-02-24T10:16:04.499Z,41.13
2018-02-24T10:18:32.813Z,41.05
2018-02-24T10:21:01.134Z,40.70
2018-02-24T10:23:29.432Z,40.42
2018-02-24T10:25:57.781Z,41.03
2018-02-24T10:28:26.154Z,40.05
2018-02-24T10:30:54.387Z,39.58
2018-02-24T10:33:22.717Z,39.96
2018-02-24T10:35:51.021Z,39.60
2018-02-24T10:38:19.316Z,39.65
2018-02-24T10:40:47.633Z,39.47
2018-02-24T10:43:15.959Z,38.83
2018-02-24T10:45:44.380Z,38.92
2018-02-24T10:48:12.687Z,38.60
2018-02-24T10:50:40.970Z,39.03
2018-02-24T10:53:09.429Z,39.31
2018-02-24T10:55:37.744Z,39.46
2018-02-24T10:58:06.060Z,38.63
2018-02-24T11:00:34.348Z,38.42
2018-02-24T11:03:02.689Z,38.47
2018-02-24T11:05:30.976Z,38.15
2018-02-24T11:07:59.242Z,37.82
2018-02-24T11:10:27.536Z,37.58
2018-02-24T11:12:55.835Z,37.39
2018-02-24T11:15:24.130Z,37.12
2018-02-24T11:17:52.459Z,37.51
2018-02-24T11:20:20.765Z,36.96
2018-02-24T11:22:49.024Z,37.53
2018-02-24T11:25:17.342Z,36.87
2018-02-24T11:27:45.607Z,36.67
2018-02-24T11:30:14.655Z,36.15
2018-02-24T11:32:42.968Z,36.02
2018-02-24T11:35:11.285Z,35.87
2018-02-24T11:37:39.547Z,34.94
2018-02-24T11:40:07.870Z,34.79
2018-02-24T11:42:36.211Z,34.30
2018-02-24T11:45:04.834Z,33.96
2018-02-24T11:47:33.143Z,33.94
2018-02-24T11:50:01.632Z,33.08
2018-02-24T11:52:29.939Z,33.13
2018-02-24T11:54:58.255Z,33.35
2018-02-24T11:57:26.639Z,32.95
2018-02-24T11:59:54.904Z,32.94
2018-02-24T12:02:23.212Z,33.38
2018-02-24T12:04:51.491Z,33.18
2018-02-24T12:07:19.783Z,33.04
2018-02-24T12:09:48.086Z,32.53
2018-02-24T12:12:16.388Z,32.26
2018-02-24T12:14:44.675Z,32.08
2018-02-24T12:17:13.237Z,32.49
2018-02-24T12:19:41.518Z,32.44
2018-02-24T12:22:09.797Z,32.67
2018-02-24T12:24:38.125Z,32.82
2018-02-24T12:27:06.433Z,32.49
2018-02-24T12:29:34.675Z,32.04
2018-02-24T12:32:02.943Z,32.37
2018-02-24T12:34:31.238Z,31.69
2018-02-24T12:36:59.550Z,31.90
2018-02-24T12:39:27.823Z,31.76
2018-02-24T12:41:56.157Z,31.56
2018-02-24T12:44:24.453Z,31.53
2018-02-24T12:46:52.751Z,31.41
2018-02-24T12:49:21.016Z,30.73
2018-02-24T12:51:49.428Z,30.87
2018-02-24T12:54:17.720Z,30.58
2018-02-24T12:56:45.995Z,30.13
2018-02-24T12:59:14.315Z,30.26
2018-02-24T13:01:42.647Z,30.57
2018-02-24T13:04:10.936Z,30.09
2018-02-24T13:06:39.212Z,29.97
2018-02-24T13:09:07.510Z,29.63
2018-02-24T13:11:35.789Z,29.27
2018-02-24T13:14:05.138Z,29.49
2018-02-24T13:16:33.618Z,29.07
2018-02-24T13:19:02.098Z,29.47
2018-02-24T13:21:30.823Z,29.35
2018-02-24T13:23:59.087Z,29.29
2018-02-24T13:26:27.397Z,29.26
2018-02-24T13:28:55.696Z,29.26
2018-02-24T13:31:24.024Z,29.59
2018-02-24T13:33:52.358Z,29.83
2018-02-24T13:36:20.677Z,29.54
2018-02-24T13:38:48.947Z,30.05
2018-02-24T13:41:17.297Z,30.45
2018-02-24T13:43:45.605Z,30.24
2018-02-24T13:46:13.884Z,30.78
2018-02-24T13:48:42.821Z,30.29
2018-02-24T13:51:11.154Z,30.29
2018-02-24T13:53:39.488Z,29.62
2018-02-24T13:56:07.862Z,29.73
2018-02-24T13:58:36.440Z,30.46
2018-02-24T14:01:05.383Z,29.74
2018-02-24T14:03:33.711Z,29.55
2018-02-24T14:06:02.392Z,29.28
2018-02-24T14:08:30.712Z,29.70
2018-02-24T14:10:59.015Z,29.76
2018-02-24T14:13:27.398Z,29.48
2018-02-24T14:15:55.744Z,29.65
2018-02-24T14:18:24.102Z,30.27
2018-02-24T14:20:52.442Z,30.49
2018-02-24T14:23:20.736Z,30.72
2018-02-24T14:25:49.040Z,30.76
2018-02-24T14:28:17.302Z,30.79
2018-02-24T14:30:45.627Z,30.81
2018-02-24T14:33:13.929Z,30.73
2018-02-24T14:35:42.262Z,30.74
2018-02-24T14:38:10.538Z,30.84
2018-02-24T14:40:38.848Z,30.99
2018-02-24T14:43:07.176Z,30.99
2018-02-24T14:45:35.927Z,31.80
2018-02-24T14:48:04.259Z,31.86
2018-02-24T14:50:32.593Z,32.67
2018-02-24T14:53:00.928Z,33.10
2018-02-24T14:55:29.217Z,33.24
2018-02-24T14:57:57.986Z,33.53
2018-02-24T15:00:26.489Z,33.71
2018-02-24T15:02:54.978Z,34.32
2018-02-24T15:05:23.265Z,34.14
2018-02-24T15:07:51.511Z,34.35
2018-02-24T15:10:19.839Z,34.92
2018-02-24T15:12:48.128Z,35.30
2018-02-24T15:15:16.411Z,35.36
2018-02-24T15:17:44.667Z,35.70
2018-02-24T15:20:12.976Z,36.13
2018-02-24T15:22:41.253Z,36.82
2018-02-24T15:25:09.527Z,36.80
2018-02-24T15:27:37.862Z,36.84
2018-02-24T15:30:06.138Z,36.95
2018-02-24T15:32:34.466Z,37.22
2018-02-24T15:35:02.725Z,37.08
2018-02-24T15:37:31.012Z,37.11
2018-02-24T15:39:59.292Z,37.25
2018-02-24T15:42:28.772Z,37.76
2018-02-24T15:44:59.790Z,38.19
2018-02-24T15:47:28.165Z,38.90
2018-02-24T15:49:56.441Z,39.10
2018-02-24T15:52:24.776Z,39.39
2018-02-24T15:54:53.118Z,39.64
2018-02-24T15:57:21.384Z,40.33
2018-02-24T15:59:49.686Z,41.12
2018-02-24T16:02:17.949Z,41.14
2018-02-24T16:04:46.263Z,40.81
2018-02-24T16:07:14.565Z,40.85
2018-02-24T16:09:42.811Z,40.95
2018-02-24T16:12:11.077Z,40.79
2018-02-24T16:14:39.738Z,40.76
2018-02-24T16:17:08.048Z,41.22
2018-02-24T16:19:36.309Z,41.11
2018-02-24T16:22:06.138Z,41.31
2018-02-24T16:24:34.403Z,42.11
2018-02-24T16:27:02.724Z,42.17
2018-02-24T16:29:31.041Z,42.45
2018-02-24T16:31:59.468Z,42.46
2018-02-24T16:34:27.735Z,42.60
2018-02-24T16:36:56.014Z,42.65
2018-02-24T16:39:24.257Z,42.62
2018-02-24T16:41:52.566Z,42.86
2018-02-24T16:44:21.107Z,43.05
2018-02-24T16:46:49.395Z,43.23
2018-02-24T16:49:17.672Z,43.08
2018-02-24T16:51:45.920Z,43.02
2018-02-24T16:54:14.247Z,42.80
2018-02-24T16:56:42.497Z,42.72
2018-02-24T16:59:10.853Z,42.78
2018-02-24T17:01:39.109Z,42.47
2018-02-24T17:04:07.455Z,42.04
2018-02-24T17:06:35.753Z,41.76
2018-02-24T17:09:04.256Z,42.03
2018-02-24T17:11:33.187Z,41.61
2018-02-24T17:14:01.524Z,41.85
2018-02-24T17:16:29.801Z,41.86
2018-02-24T17:18:58.095Z,42.06
2018-02-24T17:21:26.383Z,42.11
2018-02-24T17:23:54.683Z,42.42
2018-02-24T17:26:22.965Z,42.67
2018-02-24T17:28:51.215Z,42.46
2018-02-24T17:31:19.546Z,42.29
2018-02-24T17:33:47.837Z,42.31
2018-02-24T17:36:16.228Z,41.96
2018-02-24T17:38:44.642Z,42.08
2018-02-24T17:41:13.825Z,41.95
2018-02-24T17:43:42.156Z,42.33
2018-02-24T17:46:10.421Z,42.64
2018-02-24T17:48:38.724Z,42.59
2018-02-24T17:51:07.042Z,42.31
2018-02-24T17:53:35.329Z,42.64
2018-02-24T17:56:04.219Z,42.74
2018-02-24T17:58:32.534Z,42.69
2018-02-24T18:01:00.942Z,42.71
2018-02-24T18:03:29.232Z,42.51
2018-02-24T18:05:57.508Z,42.42
2018-02-24T18:08:25.812Z,42.39
2018-02-24T18:10:54.104Z,42.40
2018-02-24T18:13:22.442Z,42.42
2018-02-24T18:15:50.729Z,42.50
2018-02-24T18:18:19.000Z,42.17
2018-02-24T18:20:47.311Z,42.18
2018-02-24T18:23:15.592Z,42.23
2018-02-24T18:25:43.877Z,41.92
2018-02-24T18:28:12.197Z,41.91
2018-02-24T18:30:40.503Z,41.93
2018-02-24T18:33:08.819Z,42.08
2018-02-24T18:35:37.073Z,42.09
2018-02-24T18:38:06.180Z,41.98
2018-02-24T18:40:34.785Z,42.31
2018-02-24T18:43:03.057Z,42.53
2018-02-24T18:45:31.542Z,42.50
2018-02-24T18:47:59.824Z,42.37
2018-02-24T18:50:28.090Z,42.42
2018-02-24T18:52:56.375Z,42.47
2018-02-24T18:55:24.677Z,42.37
2018-02-24T18:57:52.977Z,42.35
2018-02-24T19:00:21.354Z,42.12
2018-02-24T19:02:49.595Z,42.17
2018-02-24T19:05:17.928Z,42.09
2018-02-24T19:07:46.194Z,42.03
2018-02-24T19:10:14.471Z,42.02
2018-02-24T19:12:42.816Z,42.04
2018-02-24T19:15:11.070Z,42.14
2018-02-24T19:17:39.383Z,42.29
2018-02-24T19:20:07.699Z,42.14
2018-02-24T19:22:35.994Z,41.75
2018-02-24T19:25:05.316Z,41.67
2018-02-24T19:27:33.598Z,41.86
2018-02-24T19:30:02.159Z,41.29
2018-02-24T19:32:30.441Z,41.40
2018-02-24T19:34:58.745Z,41.39
2018-02-24T19:37:27.599Z,41.15
2018-02-24T19:39:55.919Z,41.58
2018-02-24T19:42:24.176Z,41.57
2018-02-24T19:44:52.506Z,41.49
2018-02-24T19:47:20.757Z,41.33
2018-02-24T19:49:49.095Z,41.18
2018-02-24T19:52:17.378Z,41.09
2018-02-24T19:54:45.677Z,41.62
2018-02-24T19:57:13.944Z,41.40
2018-02-24T19:59:42.219Z,41.06
2018-02-24T20:02:11.646Z,41.17
2018-02-24T20:04:39.915Z,41.64
2018-02-24T20:07:08.243Z,41.84
2018-02-24T20:09:36.496Z,41.85
2018-02-24T20:12:04.792Z,42.06
2018-02-24T20:14:33.040Z,42.14
2018-02-24T20:17:01.351Z,42.05
2018-02-24T20:19:29.600Z,42.30
2018-02-24T20:21:57.889Z,42.24
2018-02-24T20:24:26.175Z,41.80
2018-02-24T20:26:54.620Z,41.99
2018-02-24T20:29:22.882Z,42.05
2018-02-24T20:31:51.132Z,42.23
2018-02-24T20:34:19.455Z,42.41
2018-02-24T20:36:47.705Z,42.38
2018-02-24T20:39:16.027Z,42.40
2018-02-24T20:41:44.309Z,42.57
2018-02-24T20:44:12.576Z,42.51
2018-02-24T20:46:40.858Z,42.49
2018-02-24T20:49:09.178Z,42.54
2018-02-24T20:51:37.500Z,42.32
2018-02-24T20:54:05.760Z,42.34
2018-02-24T20:56:34.027Z,42.32
2018-02-24T20:59:03.491Z,42.17
2018-02-24T21:01:31.812Z,42.07
2018-02-24T21:04:00.068Z,41.88
2018-02-24T21:06:28.384Z,41.95
2018-02-24T21:08:56.681Z,41.91
2018-02-24T21:11:24.950Z,41.98
2018-02-24T21:13:53.225Z,41.78
2018-02-24T21:16:21.492Z,41.62
2018-02-24T21:18:49.776Z,41.58
2018-02-24T21:21:18.066Z,41.63
2018-02-24T21:23:46.333Z,41.84
2018-02-24T21:26:14.620Z,42.07
2018-02-24T21:28:42.918Z,42.04
2018-02-24T21:31:11.172Z,41.93
2018-02-24T21:33:39.442Z,42.07
2018-02-24T21:36:07.757Z,42.12
2018-02-24T21:38:36.012Z,42.15
2018-02-24T21:41:04.997Z,42.29
2018-02-24T21:43:33.275Z,42.35
2018-02-24T21:46:01.619Z,42.01
2018-02-24T21:48:29.899Z,42.42
2018-02-24T21:50:58.200Z,42.63
2018-02-24T21:53:26.476Z,42.30
2018-02-24T21:55:55.544Z,42.24
2018-02-24T21:58:24.353Z,42.39
2018-02-24T22:00:52.623Z,42.57
2018-02-24T22:03:20.908Z,42.66
2018-02-24T22:05:49.175Z,42.41
2018-02-24T22:08:17.464Z,42.49
2018-02-24T22:10:46.073Z,42.31
2018-02-24T22:13:14.335Z,42.39
2018-02-24T22:15:42.616Z,42.69
2018-02-24T22:18:10.873Z,42.71
2018-02-24T22:20:39.487Z,43.01
2018-02-24T22:23:07.729Z,43.11
2018-02-24T22:25:36.008Z,42.70
2018-02-24T22:28:04.754Z,43.11
2018-02-24T22:30:33.064Z,43.47
2018-02-24T22:33:01.385Z,43.02
2018-02-24T22:35:29.633Z,43.05
2018-02-24T22:37:57.902Z,43.08
2018-02-24T22:40:26.169Z,43.03
2018-02-24T22:42:55.084Z,43.04
2018-02-24T22:45:23.353Z,42.96
2018-02-24T22:47:57.247Z,42.98
2018-02-24T22:50:25.495Z,43.23
2018-02-24T22:52:53.783Z,43.61
2018-02-24T22:55:22.285Z,43.39
2018-02-24T22:57:50.576Z,43.45
2018-02-24T23:00:18.863Z,43.84
2018-02-24T23:02:47.127Z,43.72
2018-02-24T23:05:15.432Z,44.09
2018-02-24T23:07:43.698Z,43.83
2018-02-24T23:10:11.967Z,43.47
2018-02-24T23:12:40.232Z,43.66
2018-02-24T23:15:08.503Z,43.49
2018-02-24T23:17:36.760Z,43.48
2018-02-24T23:20:05.036Z,43.46
2018-02-24T23:22:33.283Z,43.55
2018-02-24T23:25:01.584Z,43.50
2018-02-24T23:27:29.841Z,43.52
2018-02-24T23:29:58.108Z,43.89
2018-02-24T23:32:26.399Z,43.90
2018-02-24T23:34:54.661Z,43.79
2018-02-24T23:37:22.943Z,43.73
2018-02-24T23:39:51.212Z,43.64
2018-02-24T23:42:19.505Z,43.53
2018-02-24T23:44:47.764Z,43.75
2018-02-24T23:47:16.072Z,43.85
2018-02-24T23:49:44.324Z,43.81
2018-02-24T23:52:12.639Z,44.00
2018-02-24T23:54:40.944Z,43.77
2018-02-24T23:57:09.216Z,43.94
2018-02-24T23:59:37.491Z,43.96
